sensor_id;sensor_type;location;lat;lon;timestamp;temperature;humidity
23717;DHT22;22094;52.130;5.598;2023-07-31T00:01:01;15.00;99.90
23717;DHT22;22094;52.130;5.598;2023-07-31T00:03:27;15.10;99.90
23717;DHT22;22094;52.130;5.598;2023-07-31T00:05:52;15.10;99.90
23717;DHT22;22094;52.130;5.598;2023-07-31T00:08:18;15.00;99.90
23717;DHT22;22094;52.130;5.598;2023-07-31T00:10:44;15.10;99.90
23717;DHT22;22094;52.130;5.598;2023-07-31T00:13:09;15.10;99.90
23717;DHT22;22094;52.130;5.598;2023-07-31T00:15:35;15.10;99.90
23717;DHT22;22094;52.130;5.598;2023-07-31T00:18:00;15.10;99.90
23717;DHT22;22094;52.130;5.598;2023-07-31T00:20:26;15.10;99.90
23717;DHT22;22094;52.130;5.598;2023-07-31T00:22:52;15.40;99.90
23717;DHT22;22094;52.130;5.598;2023-07-31T00:25:17;15.20;99.90
23717;DHT22;22094;52.130;5.598;2023-07-31T00:27:43;15.20;99.90
23717;DHT22;22094;52.130;5.598;2023-07-31T00:30:11;15.20;99.90
23717;DHT22;22094;52.130;5.598;2023-07-31T00:32:37;15.20;99.90
23717;DHT22;22094;52.130;5.598;2023-07-31T00:35:03;15.30;99.90
23717;DHT22;22094;52.130;5.598;2023-07-31T00:37:28;15.20;99.90
23717;DHT22;22094;52.130;5.598;2023-07-31T00:39:54;15.30;99.90
23717;DHT22;22094;52.130;5.598;2023-07-31T00:42:19;15.20;99.90
23717;DHT22;22094;52.130;5.598;2023-07-31T00:44:45;15.20;99.90
23717;DHT22;22094;52.130;5.598;2023-07-31T00:47:11;15.30;99.90
23717;DHT22;22094;52.130;5.598;2023-07-31T00:49:36;15.20;99.90
23717;DHT22;22094;52.130;5.598;2023-07-31T00:52:03;15.40;99.90
23717;DHT22;22094;52.130;5.598;2023-07-31T00:54:28;15.40;99.90
23717;DHT22;22094;52.130;5.598;2023-07-31T00:56:54;15.50;99.90
23717;DHT22;22094;52.130;5.598;2023-07-31T00:59:20;15.60;99.90
23717;DHT22;22094;52.130;5.598;2023-07-31T01:01:46;15.60;99.90
23717;DHT22;22094;52.130;5.598;2023-07-31T01:04:13;15.70;99.90
23717;DHT22;22094;52.130;5.598;2023-07-31T01:12:16;15.90;99.90
23717;DHT22;22094;52.130;5.598;2023-07-31T01:15:04;16.00;99.90
23717;DHT22;22094;52.130;5.598;2023-07-31T01:17:30;16.10;99.90
23717;DHT22;22094;52.130;5.598;2023-07-31T01:20:00;16.10;99.90
23717;DHT22;22094;52.130;5.598;2023-07-31T01:25:21;16.30;99.90
23717;DHT22;22094;52.130;5.598;2023-07-31T01:27:59;16.30;99.90
23717;DHT22;22094;52.130;5.598;2023-07-31T01:30:32;16.30;99.90
23717;DHT22;22094;52.130;5.598;2023-07-31T01:33:01;16.40;99.90
23717;DHT22;22094;52.130;5.598;2023-07-31T01:35:33;16.30;99.90
23717;DHT22;22094;52.130;5.598;2023-07-31T01:37:58;16.40;99.90
23717;DHT22;22094;52.130;5.598;2023-07-31T01:40:24;16.40;99.90
23717;DHT22;22094;52.130;5.598;2023-07-31T01:42:49;16.30;99.90
23717;DHT22;22094;52.130;5.598;2023-07-31T01:45:15;16.40;99.90
23717;DHT22;22094;52.130;5.598;2023-07-31T01:47:41;16.30;99.90
23717;DHT22;22094;52.130;5.598;2023-07-31T01:50:06;16.40;99.90
23717;DHT22;22094;52.130;5.598;2023-07-31T01:52:32;16.40;99.90
23717;DHT22;22094;52.130;5.598;2023-07-31T01:54:58;16.40;99.90
23717;DHT22;22094;52.130;5.598;2023-07-31T01:57:23;16.40;99.90
23717;DHT22;22094;52.130;5.598;2023-07-31T01:59:49;16.40;99.90
23717;DHT22;22094;52.130;5.598;2023-07-31T02:02:15;16.40;99.90
23717;DHT22;22094;52.130;5.598;2023-07-31T02:04:41;16.40;99.90
23717;DHT22;22094;52.130;5.598;2023-07-31T02:07:06;16.50;99.90
23717;DHT22;22094;52.130;5.598;2023-07-31T02:09:32;16.40;99.90
23717;DHT22;22094;52.130;5.598;2023-07-31T02:11:58;16.40;99.90
23717;DHT22;22094;52.130;5.598;2023-07-31T02:14:23;16.50;99.90
23717;DHT22;22094;52.130;5.598;2023-07-31T02:16:49;16.40;99.90
23717;DHT22;22094;52.130;5.598;2023-07-31T02:19:15;16.40;99.90
23717;DHT22;22094;52.130;5.598;2023-07-31T02:21:41;16.40;99.90
23717;DHT22;22094;52.130;5.598;2023-07-31T02:24:06;16.40;99.90
23717;DHT22;22094;52.130;5.598;2023-07-31T02:26:32;16.40;99.90
23717;DHT22;22094;52.130;5.598;2023-07-31T02:28:57;16.30;99.90
23717;DHT22;22094;52.130;5.598;2023-07-31T02:31:23;16.40;99.90
23717;DHT22;22094;52.130;5.598;2023-07-31T02:33:48;16.40;99.90
23717;DHT22;22094;52.130;5.598;2023-07-31T02:36:14;16.40;99.90
23717;DHT22;22094;52.130;5.598;2023-07-31T02:38:40;16.40;99.90
23717;DHT22;22094;52.130;5.598;2023-07-31T02:41:05;16.30;99.90
23717;DHT22;22094;52.130;5.598;2023-07-31T02:43:31;16.50;99.90
23717;DHT22;22094;52.130;5.598;2023-07-31T02:45:56;16.40;99.90
23717;DHT22;22094;52.130;5.598;2023-07-31T02:48:22;16.40;99.90
23717;DHT22;22094;52.130;5.598;2023-07-31T02:50:48;16.40;99.90
23717;DHT22;22094;52.130;5.598;2023-07-31T02:53:14;16.40;99.90
23717;DHT22;22094;52.130;5.598;2023-07-31T02:55:40;16.40;99.90
23717;DHT22;22094;52.130;5.598;2023-07-31T02:58:06;16.40;99.90
23717;DHT22;22094;52.130;5.598;2023-07-31T03:00:31;16.50;99.90
23717;DHT22;22094;52.130;5.598;2023-07-31T03:02:57;16.40;99.90
23717;DHT22;22094;52.130;5.598;2023-07-31T03:05:22;16.50;99.90
23717;DHT22;22094;52.130;5.598;2023-07-31T03:07:48;16.50;99.90
23717;DHT22;22094;52.130;5.598;2023-07-31T03:10:14;16.50;99.90
23717;DHT22;22094;52.130;5.598;2023-07-31T03:12:40;16.40;99.90
23717;DHT22;22094;52.130;5.598;2023-07-31T03:15:06;16.40;99.90
23717;DHT22;22094;52.130;5.598;2023-07-31T03:17:32;16.40;99.90
23717;DHT22;22094;52.130;5.598;2023-07-31T03:19:57;16.50;99.90
23717;DHT22;22094;52.130;5.598;2023-07-31T03:22:23;16.40;99.90
23717;DHT22;22094;52.130;5.598;2023-07-31T03:24:48;16.40;99.90
23717;DHT22;22094;52.130;5.598;2023-07-31T03:27:14;16.20;99.90
23717;DHT22;22094;52.130;5.598;2023-07-31T03:29:39;16.30;99.90
23717;DHT22;22094;52.130;5.598;2023-07-31T03:32:05;16.40;99.90
23717;DHT22;22094;52.130;5.598;2023-07-31T03:34:31;16.40;99.90
23717;DHT22;22094;52.130;5.598;2023-07-31T03:36:58;16.30;99.90
23717;DHT22;22094;52.130;5.598;2023-07-31T03:39:23;16.40;99.90
23717;DHT22;22094;52.130;5.598;2023-07-31T03:41:49;16.30;99.90
23717;DHT22;22094;52.130;5.598;2023-07-31T03:44:14;16.30;98.40
23717;DHT22;22094;52.130;5.598;2023-07-31T03:46:40;16.30;93.20
23717;DHT22;22094;52.130;5.598;2023-07-31T03:49:05;16.30;82.10
23717;DHT22;22094;52.130;5.598;2023-07-31T03:51:31;16.30;66.60
23717;DHT22;22094;52.130;5.598;2023-07-31T03:53:57;16.20;46.30
23717;DHT22;22094;52.130;5.598;2023-07-31T03:56:22;16.20;44.20
23717;DHT22;22094;52.130;5.598;2023-07-31T03:58:49;16.20;41.00
23717;DHT22;22094;52.130;5.598;2023-07-31T04:01:14;16.20;25.80
23717;DHT22;22094;52.130;5.598;2023-07-31T04:03:40;16.20;30.60
23717;DHT22;22094;52.130;5.598;2023-07-31T04:06:05;16.20;37.00
23717;DHT22;22094;52.130;5.598;2023-07-31T04:08:32;16.20;15.60
23717;DHT22;22094;52.130;5.598;2023-07-31T04:10:58;16.20;1.00
23717;DHT22;22094;52.130;5.598;2023-07-31T04:13:23;16.20;6.80
23717;DHT22;22094;52.130;5.598;2023-07-31T04:15:50;16.20;1.00
23717;DHT22;22094;52.130;5.598;2023-07-31T04:18:19;16.20;1.00
23717;DHT22;22094;52.130;5.598;2023-07-31T04:20:45;16.20;1.00
23717;DHT22;22094;52.130;5.598;2023-07-31T04:23:11;16.20;1.00
23717;DHT22;22094;52.130;5.598;2023-07-31T04:25:36;16.20;7.20
23717;DHT22;22094;52.130;5.598;2023-07-31T04:28:02;16.20;14.40
23717;DHT22;22094;52.130;5.598;2023-07-31T04:30:27;16.20;10.70
23717;DHT22;22094;52.130;5.598;2023-07-31T04:32:53;16.10;1.00
23717;DHT22;22094;52.130;5.598;2023-07-31T04:35:19;16.20;7.70
23717;DHT22;22094;52.130;5.598;2023-07-31T04:37:44;16.10;15.70
23717;DHT22;22094;52.130;5.598;2023-07-31T04:40:13;16.10;27.10
23717;DHT22;22094;52.130;5.598;2023-07-31T04:42:39;16.20;17.80
23717;DHT22;22094;52.130;5.598;2023-07-31T04:45:05;16.20;10.90
23717;DHT22;22094;52.130;5.598;2023-07-31T04:47:30;16.20;7.10
23717;DHT22;22094;52.130;5.598;2023-07-31T04:49:56;16.20;1.00
23717;DHT22;22094;52.130;5.598;2023-07-31T04:52:22;16.20;1.00
23717;DHT22;22094;52.130;5.598;2023-07-31T04:54:47;16.20;1.00
23717;DHT22;22094;52.130;5.598;2023-07-31T04:57:13;16.10;1.00
23717;DHT22;22094;52.130;5.598;2023-07-31T04:59:39;16.30;11.90
23717;DHT22;22094;52.130;5.598;2023-07-31T05:02:05;16.10;19.70
23717;DHT22;22094;52.130;5.598;2023-07-31T05:04:30;16.10;14.90
23717;DHT22;22094;52.130;5.598;2023-07-31T05:06:56;16.10;21.20
23717;DHT22;22094;52.130;5.598;2023-07-31T05:09:22;16.10;28.70
23717;DHT22;22094;52.130;5.598;2023-07-31T05:11:47;16.20;35.50
23717;DHT22;22094;52.130;5.598;2023-07-31T05:14:13;16.10;45.10
23717;DHT22;22094;52.130;5.598;2023-07-31T05:16:39;16.10;54.00
23717;DHT22;22094;52.130;5.598;2023-07-31T05:19:04;16.10;64.40
23717;DHT22;22094;52.130;5.598;2023-07-31T05:21:30;16.00;71.90
23717;DHT22;22094;52.130;5.598;2023-07-31T05:23:55;16.00;80.30
23717;DHT22;22094;52.130;5.598;2023-07-31T05:26:21;16.00;78.00
23717;DHT22;22094;52.130;5.598;2023-07-31T05:28:46;16.10;80.60
23717;DHT22;22094;52.130;5.598;2023-07-31T05:31:12;16.10;86.80
23717;DHT22;22094;52.130;5.598;2023-07-31T05:33:38;16.00;65.80
23717;DHT22;22094;52.130;5.598;2023-07-31T05:36:03;16.00;67.30
23717;DHT22;22094;52.130;5.598;2023-07-31T05:38:29;16.00;58.30
23717;DHT22;22094;52.130;5.598;2023-07-31T05:40:55;16.00;63.60
23717;DHT22;22094;52.130;5.598;2023-07-31T05:43:21;16.00;93.70
23717;DHT22;22094;52.130;5.598;2023-07-31T05:45:47;16.00;99.90
23717;DHT22;22094;52.130;5.598;2023-07-31T05:48:13;16.00;99.90
23717;DHT22;22094;52.130;5.598;2023-07-31T05:50:38;16.00;99.90
23717;DHT22;22094;52.130;5.598;2023-07-31T05:55:31;16.00;99.90
23717;DHT22;22094;52.130;5.598;2023-07-31T05:57:57;16.10;99.90
23717;DHT22;22094;52.130;5.598;2023-07-31T06:00:22;16.50;99.90
23717;DHT22;22094;52.130;5.598;2023-07-31T06:02:48;16.00;99.90
23717;DHT22;22094;52.130;5.598;2023-07-31T06:05:14;16.10;99.90
23717;DHT22;22094;52.130;5.598;2023-07-31T06:07:40;16.00;99.90
23717;DHT22;22094;52.130;5.598;2023-07-31T06:10:06;16.10;99.90
23717;DHT22;22094;52.130;5.598;2023-07-31T06:12:32;14.10;99.90
23717;DHT22;22094;52.130;5.598;2023-07-31T06:14:58;15.80;99.90
23717;DHT22;22094;52.130;5.598;2023-07-31T06:17:24;16.20;99.90
23717;DHT22;22094;52.130;5.598;2023-07-31T06:19:50;16.20;99.90
23717;DHT22;22094;52.130;5.598;2023-07-31T06:22:16;16.20;99.90
23717;DHT22;22094;52.130;5.598;2023-07-31T06:24:41;16.20;98.30
23717;DHT22;22094;52.130;5.598;2023-07-31T06:27:07;16.30;95.80
23717;DHT22;22094;52.130;5.598;2023-07-31T06:29:33;16.20;99.90
23717;DHT22;22094;52.130;5.598;2023-07-31T06:31:59;16.50;99.60
23717;DHT22;22094;52.130;5.598;2023-07-31T06:34:24;16.20;99.90
23717;DHT22;22094;52.130;5.598;2023-07-31T06:36:50;16.30;98.90
23717;DHT22;22094;52.130;5.598;2023-07-31T06:39:16;16.20;98.10
23717;DHT22;22094;52.130;5.598;2023-07-31T06:41:43;16.20;96.90
23717;DHT22;22094;52.130;5.598;2023-07-31T06:44:09;16.30;95.00
23717;DHT22;22094;52.130;5.598;2023-07-31T06:46:35;16.20;94.80
23717;DHT22;22094;52.130;5.598;2023-07-31T06:49:00;16.30;94.20
23717;DHT22;22094;52.130;5.598;2023-07-31T06:51:26;16.40;98.20
23717;DHT22;22094;52.130;5.598;2023-07-31T06:53:51;16.40;90.30
23717;DHT22;22094;52.130;5.598;2023-07-31T06:56:17;16.50;90.80
23717;DHT22;22094;52.130;5.598;2023-07-31T06:58:43;16.40;87.20
23717;DHT22;22094;52.130;5.598;2023-07-31T07:01:08;16.50;89.60
23717;DHT22;22094;52.130;5.598;2023-07-31T07:03:34;16.50;94.10
23717;DHT22;22094;52.130;5.598;2023-07-31T07:06:00;16.50;99.80
23717;DHT22;22094;52.130;5.598;2023-07-31T07:08:25;16.60;99.90
23717;DHT22;22094;52.130;5.598;2023-07-31T07:10:51;16.60;97.70
23717;DHT22;22094;52.130;5.598;2023-07-31T07:13:17;16.90;97.80
23717;DHT22;22094;52.130;5.598;2023-07-31T07:15:50;16.70;98.30
23717;DHT22;22094;52.130;5.598;2023-07-31T07:18:16;16.70;93.00
23717;DHT22;22094;52.130;5.598;2023-07-31T07:20:47;16.70;95.20
23717;DHT22;22094;52.130;5.598;2023-07-31T07:23:13;16.80;96.70
23717;DHT22;22094;52.130;5.598;2023-07-31T07:25:38;16.70;95.00
23717;DHT22;22094;52.130;5.598;2023-07-31T07:28:04;16.80;99.60
23717;DHT22;22094;52.130;5.598;2023-07-31T07:30:30;17.40;93.40
23717;DHT22;22094;52.130;5.598;2023-07-31T07:32:55;16.80;93.60
23717;DHT22;22094;52.130;5.598;2023-07-31T07:35:21;16.70;93.90
23717;DHT22;22094;52.130;5.598;2023-07-31T07:37:48;16.90;95.10
23717;DHT22;22094;52.130;5.598;2023-07-31T07:40:15;16.90;94.00
23717;DHT22;22094;52.130;5.598;2023-07-31T07:42:41;16.90;92.50
23717;DHT22;22094;52.130;5.598;2023-07-31T07:45:07;16.80;89.40
23717;DHT22;22094;52.130;5.598;2023-07-31T07:47:33;16.80;96.10
23717;DHT22;22094;52.130;5.598;2023-07-31T07:49:59;17.00;99.90
23717;DHT22;22094;52.130;5.598;2023-07-31T07:52:24;19.60;99.90
23717;DHT22;22094;52.130;5.598;2023-07-31T07:54:50;17.00;99.90
23717;DHT22;22094;52.130;5.598;2023-07-31T07:57:16;17.00;99.90
23717;DHT22;22094;52.130;5.598;2023-07-31T07:59:41;17.00;98.30
23717;DHT22;22094;52.130;5.598;2023-07-31T08:02:07;17.10;99.80
23717;DHT22;22094;52.130;5.598;2023-07-31T08:04:33;17.10;99.90
23717;DHT22;22094;52.130;5.598;2023-07-31T08:06:58;17.10;99.90
23717;DHT22;22094;52.130;5.598;2023-07-31T08:09:24;17.10;99.90
23717;DHT22;22094;52.130;5.598;2023-07-31T08:11:50;18.50;99.90
23717;DHT22;22094;52.130;5.598;2023-07-31T08:14:15;15.10;94.60
23717;DHT22;22094;52.130;5.598;2023-07-31T08:16:41;17.10;94.70
23717;DHT22;22094;52.130;5.598;2023-07-31T08:19:06;17.20;97.40
23717;DHT22;22094;52.130;5.598;2023-07-31T08:21:32;17.20;95.70
23717;DHT22;22094;52.130;5.598;2023-07-31T08:26:23;17.20;91.20
23717;DHT22;22094;52.130;5.598;2023-07-31T08:31:15;17.20;83.00
23717;DHT22;22094;52.130;5.598;2023-07-31T08:33:40;17.40;84.50
23717;DHT22;22094;52.130;5.598;2023-07-31T08:36:06;17.30;75.20
23717;DHT22;22094;52.130;5.598;2023-07-31T08:38:32;17.30;69.50
23717;DHT22;22094;52.130;5.598;2023-07-31T08:40:58;17.50;85.90
23717;DHT22;22094;52.130;5.598;2023-07-31T08:43:27;17.60;65.80
23717;DHT22;22094;52.130;5.598;2023-07-31T08:45:53;17.60;13.60
23717;DHT22;22094;52.130;5.598;2023-07-31T08:48:20;17.60;6.00
23717;DHT22;22094;52.130;5.598;2023-07-31T08:50:46;17.60;1.00
23717;DHT22;22094;52.130;5.598;2023-07-31T08:53:12;17.70;1.00
23717;DHT22;22094;52.130;5.598;2023-07-31T08:55:38;17.80;1.00
23717;DHT22;22094;52.130;5.598;2023-07-31T08:58:04;17.80;1.00
23717;DHT22;22094;52.130;5.598;2023-07-31T09:00:32;20.00;1.00
23717;DHT22;22094;52.130;5.598;2023-07-31T09:03:01;17.80;1.00
23717;DHT22;22094;52.130;5.598;2023-07-31T09:05:29;19.10;1.00
23717;DHT22;22094;52.130;5.598;2023-07-31T09:07:56;17.70;1.00
23717;DHT22;22094;52.130;5.598;2023-07-31T09:12:50;17.80;1.10
23717;DHT22;22094;52.130;5.598;2023-07-31T09:15:16;17.90;1.00
23717;DHT22;22094;52.130;5.598;2023-07-31T09:17:42;17.90;1.00
23717;DHT22;22094;52.130;5.598;2023-07-31T09:20:16;18.10;1.00
23717;DHT22;22094;52.130;5.598;2023-07-31T09:22:43;18.00;1.00
23717;DHT22;22094;52.130;5.598;2023-07-31T09:25:24;18.30;1.00
23717;DHT22;22094;52.130;5.598;2023-07-31T09:30:16;18.40;1.00
23717;DHT22;22094;52.130;5.598;2023-07-31T09:32:43;18.40;1.00
23717;DHT22;22094;52.130;5.598;2023-07-31T09:35:31;18.30;1.00
23717;DHT22;22094;52.130;5.598;2023-07-31T09:37:58;17.80;1.00
23717;DHT22;22094;52.130;5.598;2023-07-31T09:40:35;18.20;1.00
23717;DHT22;22094;52.130;5.598;2023-07-31T09:43:03;20.10;1.00
23717;DHT22;22094;52.130;5.598;2023-07-31T09:45:29;18.30;1.00
23717;DHT22;22094;52.130;5.598;2023-07-31T09:47:56;18.10;1.00
23717;DHT22;22094;52.130;5.598;2023-07-31T09:50:23;18.20;1.00
23717;DHT22;22094;52.130;5.598;2023-07-31T09:52:50;18.10;1.00
23717;DHT22;22094;52.130;5.598;2023-07-31T09:55:16;18.10;1.00
23717;DHT22;22094;52.130;5.598;2023-07-31T09:57:44;18.10;1.00
23717;DHT22;22094;52.130;5.598;2023-07-31T10:00:13;18.20;5.20
23717;DHT22;22094;52.130;5.598;2023-07-31T10:05:07;18.70;1.00
23717;DHT22;22094;52.130;5.598;2023-07-31T10:07:37;18.60;1.00
23717;DHT22;22094;52.130;5.598;2023-07-31T10:10:07;19.50;1.00
23717;DHT22;22094;52.130;5.598;2023-07-31T10:12:34;18.70;1.00
23717;DHT22;22094;52.130;5.598;2023-07-31T10:17:26;18.80;1.00
23717;DHT22;22094;52.130;5.598;2023-07-31T10:19:53;18.60;1.00
23717;DHT22;22094;52.130;5.598;2023-07-31T10:22:20;18.80;1.00
23717;DHT22;22094;52.130;5.598;2023-07-31T10:24:46;18.50;1.00
23717;DHT22;22094;52.130;5.598;2023-07-31T10:27:13;18.40;1.00
23717;DHT22;22094;52.130;5.598;2023-07-31T10:29:40;18.40;1.00
23717;DHT22;22094;52.130;5.598;2023-07-31T10:32:10;18.40;1.00
23717;DHT22;22094;52.130;5.598;2023-07-31T10:34:39;18.40;1.00
23717;DHT22;22094;52.130;5.598;2023-07-31T10:37:30;18.40;1.00
23717;DHT22;22094;52.130;5.598;2023-07-31T10:40:01;18.50;1.00
23717;DHT22;22094;52.130;5.598;2023-07-31T10:44:59;18.50;1.00
23717;DHT22;22094;52.130;5.598;2023-07-31T10:47:25;18.40;1.00
23717;DHT22;22094;52.130;5.598;2023-07-31T10:49:51;18.50;1.00
23717;DHT22;22094;52.130;5.598;2023-07-31T10:52:21;19.90;1.00
23717;DHT22;22094;52.130;5.598;2023-07-31T10:57:47;17.80;1.00
23717;DHT22;22094;52.130;5.598;2023-07-31T11:00:27;19.10;1.00
23717;DHT22;22094;52.130;5.598;2023-07-31T11:03:01;19.00;1.00
23717;DHT22;22094;52.130;5.598;2023-07-31T11:13:31;18.90;1.00
23717;DHT22;22094;52.130;5.598;2023-07-31T11:18:25;19.00;1.00
23717;DHT22;22094;52.130;5.598;2023-07-31T11:20:51;19.30;1.00
23717;DHT22;22094;52.130;5.598;2023-07-31T11:23:17;18.80;99.90
23717;DHT22;22094;52.130;5.598;2023-07-31T11:28:11;19.10;1.00
23717;DHT22;22094;52.130;5.598;2023-07-31T11:30:37;19.10;1.00
23717;DHT22;22094;52.130;5.598;2023-07-31T11:33:05;19.00;1.00
23717;DHT22;22094;52.130;5.598;2023-07-31T11:35:35;19.60;1.00
23717;DHT22;22094;52.130;5.598;2023-07-31T11:38:02;19.60;1.00
23717;DHT22;22094;52.130;5.598;2023-07-31T11:42:57;18.50;1.00
23717;DHT22;22094;52.130;5.598;2023-07-31T11:45:27;18.50;1.00
23717;DHT22;22094;52.130;5.598;2023-07-31T11:47:54;19.70;1.00
23717;DHT22;22094;52.130;5.598;2023-07-31T11:50:21;18.50;1.00
23717;DHT22;22094;52.130;5.598;2023-07-31T11:52:48;18.60;1.00
23717;DHT22;22094;52.130;5.598;2023-07-31T11:55:15;19.70;1.00
23717;DHT22;22094;52.130;5.598;2023-07-31T11:57:43;18.50;1.00
23717;DHT22;22094;52.130;5.598;2023-07-31T12:00:10;18.60;10.80
23717;DHT22;22094;52.130;5.598;2023-07-31T12:02:37;18.50;1.00
23717;DHT22;22094;52.130;5.598;2023-07-31T12:05:06;18.60;1.00
23717;DHT22;22094;52.130;5.598;2023-07-31T12:07:48;18.50;1.00
23717;DHT22;22094;52.130;5.598;2023-07-31T12:10:31;18.50;17.00
23717;DHT22;22094;52.130;5.598;2023-07-31T12:13:01;20.20;1.00
23717;DHT22;22094;52.130;5.598;2023-07-31T12:15:41;18.50;1.00
23717;DHT22;22094;52.130;5.598;2023-07-31T12:18:11;18.60;23.50
23717;DHT22;22094;52.130;5.598;2023-07-31T12:20:49;18.60;1.00
23717;DHT22;22094;52.130;5.598;2023-07-31T12:23:20;18.70;1.00
23717;DHT22;22094;52.130;5.598;2023-07-31T12:26:03;18.80;1.00
23717;DHT22;22094;52.130;5.598;2023-07-31T12:28:30;19.00;1.00
23717;DHT22;22094;52.130;5.598;2023-07-31T12:31:00;19.10;1.00
23717;DHT22;22094;52.130;5.598;2023-07-31T12:33:31;19.20;1.00
23717;DHT22;22094;52.130;5.598;2023-07-31T12:35:57;19.20;1.00
23717;DHT22;22094;52.130;5.598;2023-07-31T12:38:23;19.30;1.00
23717;DHT22;22094;52.130;5.598;2023-07-31T12:40:49;21.70;1.00
23717;DHT22;22094;52.130;5.598;2023-07-31T12:43:15;19.30;1.00
23717;DHT22;22094;52.130;5.598;2023-07-31T12:45:41;17.10;1.00
23717;DHT22;22094;52.130;5.598;2023-07-31T12:48:07;19.30;1.00
23717;DHT22;22094;52.130;5.598;2023-07-31T12:52:58;19.10;1.00
23717;DHT22;22094;52.130;5.598;2023-07-31T12:55:24;19.40;1.00
23717;DHT22;22094;52.130;5.598;2023-07-31T12:57:50;18.80;1.00
23717;DHT22;22094;52.130;5.598;2023-07-31T13:02:42;19.10;1.00
23717;DHT22;22094;52.130;5.598;2023-07-31T13:05:08;21.40;99.90
23717;DHT22;22094;52.130;5.598;2023-07-31T13:07:34;20.50;1.00
23717;DHT22;22094;52.130;5.598;2023-07-31T13:10:00;19.30;1.00
23717;DHT22;22094;52.130;5.598;2023-07-31T13:12:25;19.40;99.90
23717;DHT22;22094;52.130;5.598;2023-07-31T13:14:51;17.40;1.00
23717;DHT22;22094;52.130;5.598;2023-07-31T13:19:43;19.50;99.90
23717;DHT22;22094;52.130;5.598;2023-07-31T13:22:08;19.50;99.90
23717;DHT22;22094;52.130;5.598;2023-07-31T13:24:34;19.40;1.00
23717;DHT22;22094;52.130;5.598;2023-07-31T13:29:25;19.40;1.00
23717;DHT22;22094;52.130;5.598;2023-07-31T13:31:52;19.60;1.00
23717;DHT22;22094;52.130;5.598;2023-07-31T13:34:18;19.40;1.00
23717;DHT22;22094;52.130;5.598;2023-07-31T13:36:43;19.50;1.00
23717;DHT22;22094;52.130;5.598;2023-07-31T13:39:09;20.60;1.00
23717;DHT22;22094;52.130;5.598;2023-07-31T13:41:35;19.80;1.00
23717;DHT22;22094;52.130;5.598;2023-07-31T13:44:00;19.90;99.90
23717;DHT22;22094;52.130;5.598;2023-07-31T13:46:26;19.90;1.00
23717;DHT22;22094;52.130;5.598;2023-07-31T13:48:52;19.80;99.90
23717;DHT22;22094;52.130;5.598;2023-07-31T13:53:47;19.30;1.00
23717;DHT22;22094;52.130;5.598;2023-07-31T13:56:12;19.10;1.00
23717;DHT22;22094;52.130;5.598;2023-07-31T13:58:38;19.00;1.00
23717;DHT22;22094;52.130;5.598;2023-07-31T14:01:04;19.50;1.00
23717;DHT22;22094;52.130;5.598;2023-07-31T14:03:30;18.70;1.00
23717;DHT22;22094;52.130;5.598;2023-07-31T14:05:56;18.80;3.50
23717;DHT22;22094;52.130;5.598;2023-07-31T14:08:22;18.80;3.70
23717;DHT22;22094;52.130;5.598;2023-07-31T14:10:47;18.70;16.90
23717;DHT22;22094;52.130;5.598;2023-07-31T14:13:13;20.00;20.40
23717;DHT22;22094;52.130;5.598;2023-07-31T14:15:41;18.70;14.00
23717;DHT22;22094;52.130;5.598;2023-07-31T14:18:07;18.60;74.00
23717;DHT22;22094;52.130;5.598;2023-07-31T14:20:33;18.70;70.70
23717;DHT22;22094;52.130;5.598;2023-07-31T14:22:58;18.50;71.90
23717;DHT22;22094;52.130;5.598;2023-07-31T14:25:24;16.10;52.10
23717;DHT22;22094;52.130;5.598;2023-07-31T14:27:50;18.60;51.10
23717;DHT22;22094;52.130;5.598;2023-07-31T14:30:15;18.60;68.00
23717;DHT22;22094;52.130;5.598;2023-07-31T14:32:42;18.60;68.80
23717;DHT22;22094;52.130;5.598;2023-07-31T14:35:08;18.70;70.70
23717;DHT22;22094;52.130;5.598;2023-07-31T14:37:41;21.00;23.00
23717;DHT22;22094;52.130;5.598;2023-07-31T14:40:08;18.60;24.20
23717;DHT22;22094;52.130;5.598;2023-07-31T14:42:34;18.70;31.10
23717;DHT22;22094;52.130;5.598;2023-07-31T14:45:01;16.60;23.60
23717;DHT22;22094;52.130;5.598;2023-07-31T14:47:26;18.70;26.50
23717;DHT22;22094;52.130;5.598;2023-07-31T14:49:52;18.70;16.90
23717;DHT22;22094;52.130;5.598;2023-07-31T14:52:17;18.80;15.70
23717;DHT22;22094;52.130;5.598;2023-07-31T14:54:43;18.70;9.90
23717;DHT22;22094;52.130;5.598;2023-07-31T14:57:09;18.60;1.00
23717;DHT22;22094;52.130;5.598;2023-07-31T14:59:34;18.60;1.10
23717;DHT22;22094;52.130;5.598;2023-07-31T15:02:00;18.60;1.10
23717;DHT22;22094;52.130;5.598;2023-07-31T15:04:26;18.80;7.20
23717;DHT22;22094;52.130;5.598;2023-07-31T15:06:52;18.50;10.10
23717;DHT22;22094;52.130;5.598;2023-07-31T15:09:18;18.50;25.40
23717;DHT22;22094;52.130;5.598;2023-07-31T15:11:43;18.50;46.20
23717;DHT22;22094;52.130;5.598;2023-07-31T15:14:09;18.50;42.80
23717;DHT22;22094;52.130;5.598;2023-07-31T15:16:35;18.60;39.20
23717;DHT22;22094;52.130;5.598;2023-07-31T15:19:00;18.50;61.70
23717;DHT22;22094;52.130;5.598;2023-07-31T15:21:26;19.00;45.50
23717;DHT22;22094;52.130;5.598;2023-07-31T15:23:52;18.40;47.50
23717;DHT22;22094;52.130;5.598;2023-07-31T15:26:18;18.40;62.60
23717;DHT22;22094;52.130;5.598;2023-07-31T15:28:49;18.40;77.30
23717;DHT22;22094;52.130;5.598;2023-07-31T15:31:15;18.40;61.70
23717;DHT22;22094;52.130;5.598;2023-07-31T15:33:41;18.30;54.70
23717;DHT22;22094;52.130;5.598;2023-07-31T15:36:06;18.20;65.00
23717;DHT22;22094;52.130;5.598;2023-07-31T15:38:32;18.40;70.30
23717;DHT22;22094;52.130;5.598;2023-07-31T15:43:24;18.30;72.90
23717;DHT22;22094;52.130;5.598;2023-07-31T15:45:50;18.30;73.60
23717;DHT22;22094;52.130;5.598;2023-07-31T15:48:16;16.30;82.10
23717;DHT22;22094;52.130;5.598;2023-07-31T15:50:41;18.30;61.60
23717;DHT22;22094;52.130;5.598;2023-07-31T15:53:07;18.30;83.80
23717;DHT22;22094;52.130;5.598;2023-07-31T15:55:33;15.90;63.60
23717;DHT22;22094;52.130;5.598;2023-07-31T15:57:59;18.30;68.10
23717;DHT22;22094;52.130;5.598;2023-07-31T16:00:24;18.40;62.80
23717;DHT22;22094;52.130;5.598;2023-07-31T16:02:50;18.30;62.00
23717;DHT22;22094;52.130;5.598;2023-07-31T16:07:41;18.30;60.10
23717;DHT22;22094;52.130;5.598;2023-07-31T16:10:07;18.30;52.30
23717;DHT22;22094;52.130;5.598;2023-07-31T16:12:33;18.20;55.90
23717;DHT22;22094;52.130;5.598;2023-07-31T16:14:59;18.30;70.50
23717;DHT22;22094;52.130;5.598;2023-07-31T16:17:24;18.20;73.10
23717;DHT22;22094;52.130;5.598;2023-07-31T16:19:50;18.20;80.80
23717;DHT22;22094;52.130;5.598;2023-07-31T16:22:15;18.20;70.70
23717;DHT22;22094;52.130;5.598;2023-07-31T16:24:41;18.20;74.00
23717;DHT22;22094;52.130;5.598;2023-07-31T16:27:07;18.20;65.70
23717;DHT22;22094;52.130;5.598;2023-07-31T16:29:32;19.10;40.70
23717;DHT22;22094;52.130;5.598;2023-07-31T16:31:58;18.10;48.00
23717;DHT22;22094;52.130;5.598;2023-07-31T16:34:24;18.10;51.30